sensor_id;sensor_type;location;lat;lon;timestamp;P1;durP1;ratioP1;P2;durP2;ratioP2
39314;SDS011;28703;44.412;11.918;2023-07-22T00:01:02;256.55;;;238.57;;
39314;SDS011;28703;44.412;11.918;2023-07-22T00:03:28;228.85;;;213.05;;
39314;SDS011;28703;44.412;11.918;2023-07-22T00:08:31;247.45;;;230.30;;
39314;SDS011;28703;44.412;11.918;2023-07-22T00:10:57;208.00;;;193.50;;
39314;SDS011;28703;44.412;11.918;2023-07-22T00:13:23;232.40;;;216.25;;
39314;SDS011;28703;44.412;11.918;2023-07-22T00:15:52;169.45;;;157.73;;
39314;SDS011;28703;44.412;11.918;2023-07-22T00:18:19;199.00;;;184.88;;
39314;SDS011;28703;44.412;11.918;2023-07-22T00:20:45;186.95;;;174.35;;
39314;SDS011;28703;44.412;11.918;2023-07-22T00:23:10;187.95;;;175.07;;
39314;SDS011;28703;44.412;11.918;2023-07-22T00:25:36;169.15;;;157.77;;
39314;SDS011;28703;44.412;11.918;2023-07-22T00:28:02;164.27;;;153.50;;
39314;SDS011;28703;44.412;11.918;2023-07-22T00:30:29;138.82;;;129.50;;
39314;SDS011;28703;44.412;11.918;2023-07-22T00:32:55;132.30;;;123.25;;
39314;SDS011;28703;44.412;11.918;2023-07-22T00:35:21;126.70;;;118.25;;
39314;SDS011;28703;44.412;11.918;2023-07-22T00:37:47;108.25;;;100.43;;
39314;SDS011;28703;44.412;11.918;2023-07-22T00:40:13;82.35;;;76.35;;
39314;SDS011;28703;44.412;11.918;2023-07-22T00:42:39;128.55;;;120.13;;
39314;SDS011;28703;44.412;11.918;2023-07-22T00:45:05;91.85;;;85.53;;
39314;SDS011;28703;44.412;11.918;2023-07-22T00:47:32;89.35;;;83.40;;
39314;SDS011;28703;44.412;11.918;2023-07-22T00:50:02;87.43;;;81.05;;
39314;SDS011;28703;44.412;11.918;2023-07-22T00:52:29;109.45;;;101.82;;
39314;SDS011;28703;44.412;11.918;2023-07-22T00:54:55;123.35;;;115.07;;
39314;SDS011;28703;44.412;11.918;2023-07-22T00:57:21;115.93;;;108.25;;
39314;SDS011;28703;44.412;11.918;2023-07-22T00:59:47;129.40;;;120.55;;
39314;SDS011;28703;44.412;11.918;2023-07-22T01:02:14;127.32;;;118.82;;
39314;SDS011;28703;44.412;11.918;2023-07-22T01:04:40;144.98;;;135.57;;
39314;SDS011;28703;44.412;11.918;2023-07-22T01:07:06;155.73;;;145.68;;
39314;SDS011;28703;44.412;11.918;2023-07-22T01:09:36;156.05;;;146.10;;
39314;SDS011;28703;44.412;11.918;2023-07-22T01:12:03;156.73;;;146.60;;
39314;SDS011;28703;44.412;11.918;2023-07-22T01:14:40;154.10;;;143.90;;
39314;SDS011;28703;44.412;11.918;2023-07-22T01:17:08;171.75;;;160.65;;
39314;SDS011;28703;44.412;11.918;2023-07-22T01:19:35;169.32;;;158.23;;
39314;SDS011;28703;44.412;11.918;2023-07-22T01:22:05;170.45;;;159.75;;
39314;SDS011;28703;44.412;11.918;2023-07-22T01:24:36;135.10;;;126.22;;
39314;SDS011;28703;44.412;11.918;2023-07-22T01:27:04;176.55;;;165.15;;
39314;SDS011;28703;44.412;11.918;2023-07-22T01:29:33;195.55;;;183.13;;
39314;SDS011;28703;44.412;11.918;2023-07-22T01:32:00;161.70;;;151.65;;
39314;SDS011;28703;44.412;11.918;2023-07-22T01:34:26;163.48;;;153.23;;
39314;SDS011;28703;44.412;11.918;2023-07-22T01:36:52;185.18;;;173.07;;
39314;SDS011;28703;44.412;11.918;2023-07-22T01:39:19;134.20;;;125.18;;
39314;SDS011;28703;44.412;11.918;2023-07-22T01:41:45;164.55;;;153.60;;
39314;SDS011;28703;44.412;11.918;2023-07-22T01:44:11;172.30;;;161.48;;
39314;SDS011;28703;44.412;11.918;2023-07-22T01:46:37;153.77;;;144.00;;
39314;SDS011;28703;44.412;11.918;2023-07-22T01:49:04;149.10;;;139.40;;
39314;SDS011;28703;44.412;11.918;2023-07-22T01:51:33;159.70;;;149.77;;
39314;SDS011;28703;44.412;11.918;2023-07-22T01:53:59;167.82;;;157.27;;
39314;SDS011;28703;44.412;11.918;2023-07-22T01:56:26;155.20;;;145.45;;
39314;SDS011;28703;44.412;11.918;2023-07-22T01:58:52;148.40;;;139.15;;
39314;SDS011;28703;44.412;11.918;2023-07-22T02:01:17;154.70;;;144.95;;
39314;SDS011;28703;44.412;11.918;2023-07-22T02:03:44;162.27;;;152.00;;
39314;SDS011;28703;44.412;11.918;2023-07-22T02:06:10;166.07;;;155.30;;
39314;SDS011;28703;44.412;11.918;2023-07-22T02:08:36;136.75;;;128.05;;
39314;SDS011;28703;44.412;11.918;2023-07-22T02:11:02;155.68;;;145.25;;
39314;SDS011;28703;44.412;11.918;2023-07-22T02:13:30;138.55;;;129.65;;
39314;SDS011;28703;44.412;11.918;2023-07-22T02:15:57;159.82;;;149.90;;
39314;SDS011;28703;44.412;11.918;2023-07-22T02:18:23;142.35;;;133.30;;
39314;SDS011;28703;44.412;11.918;2023-07-22T02:20:49;161.30;;;150.75;;
39314;SDS011;28703;44.412;11.918;2023-07-22T02:23:15;166.82;;;156.30;;
39314;SDS011;28703;44.412;11.918;2023-07-22T02:25:41;231.93;;;217.10;;
39314;SDS011;28703;44.412;11.918;2023-07-22T02:28:07;178.30;;;167.05;;
39314;SDS011;28703;44.412;11.918;2023-07-22T02:30:36;162.60;;;151.95;;
39314;SDS011;28703;44.412;11.918;2023-07-22T02:33:03;173.10;;;161.65;;
39314;SDS011;28703;44.412;11.918;2023-07-22T02:35:30;209.95;;;196.52;;
39314;SDS011;28703;44.412;11.918;2023-07-22T02:37:57;186.20;;;174.43;;
39314;SDS011;28703;44.412;11.918;2023-07-22T02:40:23;183.27;;;171.27;;
39314;SDS011;28703;44.412;11.918;2023-07-22T02:42:48;171.13;;;159.98;;
39314;SDS011;28703;44.412;11.918;2023-07-22T02:45:14;150.05;;;140.15;;
39314;SDS011;28703;44.412;11.918;2023-07-22T02:47:40;153.27;;;143.15;;
39314;SDS011;28703;44.412;11.918;2023-07-22T02:50:06;176.57;;;165.15;;
39314;SDS011;28703;44.412;11.918;2023-07-22T02:52:33;174.18;;;162.95;;
39314;SDS011;28703;44.412;11.918;2023-07-22T02:55:09;161.82;;;151.25;;
39314;SDS011;28703;44.412;11.918;2023-07-22T02:57:44;189.65;;;177.60;;
39314;SDS011;28703;44.412;11.918;2023-07-22T03:00:11;173.07;;;161.63;;
39314;SDS011;28703;44.412;11.918;2023-07-22T03:02:38;185.32;;;173.15;;
39314;SDS011;28703;44.412;11.918;2023-07-22T03:05:05;167.52;;;156.27;;
39314;SDS011;28703;44.412;11.918;2023-07-22T03:07:37;191.10;;;178.80;;
39314;SDS011;28703;44.412;11.918;2023-07-22T03:10:07;182.23;;;170.38;;
39314;SDS011;28703;44.412;11.918;2023-07-22T03:12:34;182.15;;;169.95;;
39314;SDS011;28703;44.412;11.918;2023-07-22T03:15:00;162.40;;;151.90;;
39314;SDS011;28703;44.412;11.918;2023-07-22T03:17:27;167.60;;;156.75;;
39314;SDS011;28703;44.412;11.918;2023-07-22T03:19:52;176.52;;;165.10;;
39314;SDS011;28703;44.412;11.918;2023-07-22T03:22:18;191.45;;;178.52;;
39314;SDS011;28703;44.412;11.918;2023-07-22T03:24:45;183.88;;;172.07;;
39314;SDS011;28703;44.412;11.918;2023-07-22T03:27:11;221.02;;;206.25;;
39314;SDS011;28703;44.412;11.918;2023-07-22T03:29:38;200.27;;;187.18;;
39314;SDS011;28703;44.412;11.918;2023-07-22T03:32:06;176.00;;;164.27;;
39314;SDS011;28703;44.412;11.918;2023-07-22T03:34:32;182.35;;;170.38;;
39314;SDS011;28703;44.412;11.918;2023-07-22T03:36:58;203.48;;;189.90;;
39314;SDS011;28703;44.412;11.918;2023-07-22T03:39:24;206.75;;;192.95;;
39314;SDS011;28703;44.412;11.918;2023-07-22T03:41:50;189.30;;;176.70;;
39314;SDS011;28703;44.412;11.918;2023-07-22T03:44:16;235.98;;;220.18;;
39314;SDS011;28703;44.412;11.918;2023-07-22T03:46:42;265.75;;;248.25;;
39314;SDS011;28703;44.412;11.918;2023-07-22T03:49:08;266.35;;;248.82;;
39314;SDS011;28703;44.412;11.918;2023-07-22T03:51:34;223.48;;;208.40;;
39314;SDS011;28703;44.412;11.918;2023-07-22T03:54:00;242.45;;;226.48;;
39314;SDS011;28703;44.412;11.918;2023-07-22T03:56:26;227.13;;;211.55;;
39314;SDS011;28703;44.412;11.918;2023-07-22T03:58:52;263.27;;;245.35;;
39314;SDS011;28703;44.412;11.918;2023-07-22T04:01:18;235.65;;;219.68;;
39314;SDS011;28703;44.412;11.918;2023-07-22T04:03:44;227.02;;;211.80;;
39314;SDS011;28703;44.412;11.918;2023-07-22T04:06:11;315.08;;;293.77;;
39314;SDS011;28703;44.412;11.918;2023-07-22T04:08:37;199.18;;;185.55;;
39314;SDS011;28703;44.412;11.918;2023-07-22T04:11:03;175.80;;;163.88;;
39314;SDS011;28703;44.412;11.918;2023-07-22T04:13:29;170.70;;;159.30;;
39314;SDS011;28703;44.412;11.918;2023-07-22T04:15:55;186.93;;;174.48;;
39314;SDS011;28703;44.412;11.918;2023-07-22T04:18:21;192.43;;;179.57;;
39314;SDS011;28703;44.412;11.918;2023-07-22T04:20:51;166.82;;;155.82;;
39314;SDS011;28703;44.412;11.918;2023-07-22T04:23:22;181.60;;;169.38;;
39314;SDS011;28703;44.412;11.918;2023-07-22T04:25:48;168.25;;;156.90;;
39314;SDS011;28703;44.412;11.918;2023-07-22T04:28:13;148.45;;;138.52;;
39314;SDS011;28703;44.412;11.918;2023-07-22T04:30:40;164.25;;;153.25;;
39314;SDS011;28703;44.412;11.918;2023-07-22T04:33:07;189.65;;;176.18;;
39314;SDS011;28703;44.412;11.918;2023-07-22T04:35:40;195.32;;;182.43;;
39314;SDS011;28703;44.412;11.918;2023-07-22T04:38:06;175.52;;;163.52;;
39314;SDS011;28703;44.412;11.918;2023-07-22T04:40:32;112.93;;;104.88;;
39314;SDS011;28703;44.412;11.918;2023-07-22T04:42:58;197.65;;;183.95;;
39314;SDS011;28703;44.412;11.918;2023-07-22T04:45:24;187.13;;;173.90;;
39314;SDS011;28703;44.412;11.918;2023-07-22T04:47:50;185.40;;;172.95;;
39314;SDS011;28703;44.412;11.918;2023-07-22T04:50:17;180.40;;;168.10;;
39314;SDS011;28703;44.412;11.918;2023-07-22T04:52:44;186.88;;;174.35;;
39314;SDS011;28703;44.412;11.918;2023-07-22T04:55:12;481.35;;;445.88;;
39314;SDS011;28703;44.412;11.918;2023-07-22T04:57:39;341.33;;;317.40;;
39314;SDS011;28703;44.412;11.918;2023-07-22T05:00:06;393.98;;;366.52;;
39314;SDS011;28703;44.412;11.918;2023-07-22T05:02:39;212.73;;;198.07;;
39314;SDS011;28703;44.412;11.918;2023-07-22T05:05:06;204.98;;;190.40;;
39314;SDS011;28703;44.412;11.918;2023-07-22T05:07:32;198.43;;;185.02;;
39314;SDS011;28703;44.412;11.918;2023-07-22T05:09:58;478.17;;;443.50;;
39314;SDS011;28703;44.412;11.918;2023-07-22T05:12:24;370.27;;;344.13;;
39314;SDS011;28703;44.412;11.918;2023-07-22T05:14:50;441.23;;;409.63;;
39314;SDS011;28703;44.412;11.918;2023-07-22T05:17:15;433.52;;;402.27;;
39314;SDS011;28703;44.412;11.918;2023-07-22T05:19:41;440.80;;;409.25;;
39314;SDS011;28703;44.412;11.918;2023-07-22T05:22:07;410.73;;;381.02;;
39314;SDS011;28703;44.412;11.918;2023-07-22T05:24:33;370.35;;;343.10;;
39314;SDS011;28703;44.412;11.918;2023-07-22T05:26:59;335.25;;;310.55;;
39314;SDS011;28703;44.412;11.918;2023-07-22T05:29:25;305.40;;;283.55;;
39314;SDS011;28703;44.412;11.918;2023-07-22T05:31:51;263.80;;;245.00;;
39314;SDS011;28703;44.412;11.918;2023-07-22T05:34:17;245.32;;;227.30;;
39314;SDS011;28703;44.412;11.918;2023-07-22T05:36:42;228.25;;;212.00;;
39314;SDS011;28703;44.412;11.918;2023-07-22T05:39:09;225.32;;;208.93;;
39314;SDS011;28703;44.412;11.918;2023-07-22T05:41:35;234.10;;;217.55;;
39314;SDS011;28703;44.412;11.918;2023-07-22T05:44:01;229.32;;;212.60;;
39314;SDS011;28703;44.412;11.918;2023-07-22T05:46:27;239.52;;;222.73;;
39314;SDS011;28703;44.412;11.918;2023-07-22T05:48:53;248.90;;;231.07;;
39314;SDS011;28703;44.412;11.918;2023-07-22T05:51:18;291.05;;;270.02;;
39314;SDS011;28703;44.412;11.918;2023-07-22T05:53:44;334.48;;;309.50;;
39314;SDS011;28703;44.412;11.918;2023-07-22T05:56:10;370.15;;;343.38;;
39314;SDS011;28703;44.412;11.918;2023-07-22T05:58:36;406.52;;;376.33;;
39314;SDS011;28703;44.412;11.918;2023-07-22T06:01:02;408.23;;;378.50;;
39314;SDS011;28703;44.412;11.918;2023-07-22T06:03:28;442.45;;;409.90;;
39314;SDS011;28703;44.412;11.918;2023-07-22T06:05:54;428.45;;;397.75;;
39314;SDS011;28703;44.412;11.918;2023-07-22T06:08:20;424.05;;;393.17;;
39314;SDS011;28703;44.412;11.918;2023-07-22T06:10:46;432.92;;;401.42;;
39314;SDS011;28703;44.412;11.918;2023-07-22T06:13:12;435.30;;;403.38;;
39314;SDS011;28703;44.412;11.918;2023-07-22T06:15:38;425.13;;;394.17;;
39314;SDS011;28703;44.412;11.918;2023-07-22T06:18:04;411.35;;;381.25;;
39314;SDS011;28703;44.412;11.918;2023-07-22T06:20:34;365.77;;;340.08;;
39314;SDS011;28703;44.412;11.918;2023-07-22T06:23:01;406.00;;;376.25;;
39314;SDS011;28703;44.412;11.918;2023-07-22T06:25:27;423.23;;;392.25;;
39314;SDS011;28703;44.412;11.918;2023-07-22T06:27:53;410.80;;;380.70;;
39314;SDS011;28703;44.412;11.918;2023-07-22T06:30:19;367.02;;;341.40;;
39314;SDS011;28703;44.412;11.918;2023-07-22T06:32:45;328.92;;;305.88;;
39314;SDS011;28703;44.412;11.918;2023-07-22T06:35:11;330.73;;;307.40;;
39314;SDS011;28703;44.412;11.918;2023-07-22T06:37:37;331.48;;;308.75;;
39314;SDS011;28703;44.412;11.918;2023-07-22T06:40:04;347.00;;;322.90;;
39314;SDS011;28703;44.412;11.918;2023-07-22T06:42:31;300.48;;;279.48;;
39314;SDS011;28703;44.412;11.918;2023-07-22T06:44:57;319.58;;;297.30;;
39314;SDS011;28703;44.412;11.918;2023-07-22T06:47:22;309.25;;;287.95;;
39314;SDS011;28703;44.412;11.918;2023-07-22T06:49:49;301.48;;;280.48;;
39314;SDS011;28703;44.412;11.918;2023-07-22T06:52:16;438.95;;;406.50;;
39314;SDS011;28703;44.412;11.918;2023-07-22T06:54:42;467.52;;;432.65;;
39314;SDS011;28703;44.412;11.918;2023-07-22T06:57:08;479.48;;;442.80;;
39314;SDS011;28703;44.412;11.918;2023-07-22T06:59:34;485.60;;;448.40;;
39314;SDS011;28703;44.412;11.918;2023-07-22T07:02:00;495.23;;;457.25;;
39314;SDS011;28703;44.412;11.918;2023-07-22T07:04:26;492.27;;;454.77;;
39314;SDS011;28703;44.412;11.918;2023-07-22T07:06:52;489.60;;;452.15;;
39314;SDS011;28703;44.412;11.918;2023-07-22T07:09:18;480.75;;;444.63;;
39314;SDS011;28703;44.412;11.918;2023-07-22T07:11:44;480.17;;;444.17;;
39314;SDS011;28703;44.412;11.918;2023-07-22T07:14:10;440.20;;;408.00;;
39314;SDS011;28703;44.412;11.918;2023-07-22T07:16:37;424.60;;;393.50;;
39314;SDS011;28703;44.412;11.918;2023-07-22T07:19:03;383.35;;;355.73;;
39314;SDS011;28703;44.412;11.918;2023-07-22T07:21:29;384.52;;;357.27;;
39314;SDS011;28703;44.412;11.918;2023-07-22T07:23:55;396.02;;;367.70;;
39314;SDS011;28703;44.412;11.918;2023-07-22T07:26:21;312.60;;;291.02;;
39314;SDS011;28703;44.412;11.918;2023-07-22T07:28:48;362.77;;;337.20;;
39314;SDS011;28703;44.412;11.918;2023-07-22T07:31:16;297.40;;;277.23;;
39314;SDS011;28703;44.412;11.918;2023-07-22T07:33:42;234.93;;;218.55;;
39314;SDS011;28703;44.412;11.918;2023-07-22T07:36:08;298.35;;;278.00;;
39314;SDS011;28703;44.412;11.918;2023-07-22T07:38:34;282.42;;;263.00;;
39314;SDS011;28703;44.412;11.918;2023-07-22T07:41:04;279.08;;;260.08;;
39314;SDS011;28703;44.412;11.918;2023-07-22T07:43:36;263.33;;;245.75;;
39314;SDS011;28703;44.412;11.918;2023-07-22T07:48:50;249.75;;;232.35;;
39314;SDS011;28703;44.412;11.918;2023-07-22T07:51:20;190.82;;;177.75;;
39314;SDS011;28703;44.412;11.918;2023-07-22T07:53:48;191.40;;;177.98;;
39314;SDS011;28703;44.412;11.918;2023-07-22T07:56:15;202.98;;;189.13;;
39314;SDS011;28703;44.412;11.918;2023-07-22T07:58:42;169.25;;;157.43;;
39314;SDS011;28703;44.412;11.918;2023-07-22T08:01:09;147.13;;;136.48;;
39314;SDS011;28703;44.412;11.918;2023-07-22T08:03:36;115.93;;;108.15;;
39314;SDS011;28703;44.412;11.918;2023-07-22T08:06:04;105.63;;;97.82;;
39314;SDS011;28703;44.412;11.918;2023-07-22T08:08:31;96.00;;;88.07;;
39314;SDS011;28703;44.412;11.918;2023-07-22T08:10:58;90.00;;;83.35;;
39314;SDS011;28703;44.412;11.918;2023-07-22T08:13:27;117.20;;;108.63;;
39314;SDS011;28703;44.412;11.918;2023-07-22T08:15:56;76.15;;;70.60;;
39314;SDS011;28703;44.412;11.918;2023-07-22T08:18:23;90.60;;;84.00;;
39314;SDS011;28703;44.412;11.918;2023-07-22T08:20:51;90.78;;;84.82;;
39314;SDS011;28703;44.412;11.918;2023-07-22T08:23:18;83.85;;;77.57;;
39314;SDS011;28703;44.412;11.918;2023-07-22T08:25:45;84.38;;;77.07;;
39314;SDS011;28703;44.412;11.918;2023-07-22T08:28:10;78.28;;;72.82;;
39314;SDS011;28703;44.412;11.918;2023-07-22T08:30:36;72.80;;;67.05;;
39314;SDS011;28703;44.412;11.918;2023-07-22T08:33:05;83.68;;;76.88;;
39314;SDS011;28703;44.412;11.918;2023-07-22T08:35:35;79.80;;;73.93;;
39314;SDS011;28703;44.412;11.918;2023-07-22T08:38:04;388.80;;;360.08;;
39314;SDS011;28703;44.412;11.918;2023-07-22T08:40:37;139.25;;;129.38;;
39314;SDS011;28703;44.412;11.918;2023-07-22T08:43:05;116.85;;;107.45;;
39314;SDS011;28703;44.412;11.918;2023-07-22T08:45:33;119.43;;;110.18;;
39314;SDS011;28703;44.412;11.918;2023-07-22T08:48:05;109.00;;;100.88;;
39314;SDS011;28703;44.412;11.918;2023-07-22T08:51:34;67.57;;;62.80;;
39314;SDS011;28703;44.412;11.918;2023-07-22T08:53:30;41.97;;;38.83;;
39314;SDS011;28703;44.412;11.918;2023-07-22T08:55:58;42.22;;;39.15;;
39314;SDS011;28703;44.412;11.918;2023-07-22T08:58:24;64.35;;;59.72;;
39314;SDS011;28703;44.412;11.918;2023-07-22T09:00:51;69.03;;;63.72;;
39314;SDS011;28703;44.412;11.918;2023-07-22T09:03:18;57.15;;;53.17;;
39314;SDS011;28703;44.412;11.918;2023-07-22T09:05:44;46.60;;;42.90;;
39314;SDS011;28703;44.412;11.918;2023-07-22T09:08:11;68.32;;;63.25;;
39314;SDS011;28703;44.412;11.918;2023-07-22T09:10:37;45.47;;;41.80;;
39314;SDS011;28703;44.412;11.918;2023-07-22T09:13:03;89.80;;;83.85;;
39314;SDS011;28703;44.412;11.918;2023-07-22T09:15:31;122.18;;;113.35;;
39314;SDS011;28703;44.412;11.918;2023-07-22T09:18:00;124.05;;;115.07;;
39314;SDS011;28703;44.412;11.918;2023-07-22T09:20:26;96.88;;;90.03;;
39314;SDS011;28703;44.412;11.918;2023-07-22T09:22:54;53.92;;;49.95;;
39314;SDS011;28703;44.412;11.918;2023-07-22T09:25:24;32.53;;;30.33;;
39314;SDS011;28703;44.412;11.918;2023-07-22T09:27:53;42.30;;;39.00;;
39314;SDS011;28703;44.412;11.918;2023-07-22T09:30:25;145.43;;;134.60;;
39314;SDS011;28703;44.412;11.918;2023-07-22T09:33:05;114.35;;;106.45;;
39314;SDS011;28703;44.412;11.918;2023-07-22T09:38:11;153.70;;;142.82;;
39314;SDS011;28703;44.412;11.918;2023-07-22T09:40:38;177.40;;;164.52;;
39314;SDS011;28703;44.412;11.918;2023-07-22T09:43:06;188.48;;;175.43;;
39314;SDS011;28703;44.412;11.918;2023-07-22T09:45:35;193.73;;;180.25;;
39314;SDS011;28703;44.412;11.918;2023-07-22T09:48:03;206.55;;;191.77;;
39314;SDS011;28703;44.412;11.918;2023-07-22T09:50:29;201.13;;;187.00;;
39314;SDS011;28703;44.412;11.918;2023-07-22T09:52:58;233.98;;;216.98;;
39314;SDS011;28703;44.412;11.918;2023-07-22T09:55:26;241.68;;;224.93;;
39314;SDS011;28703;44.412;11.918;2023-07-22T09:57:56;295.47;;;274.80;;
39314;SDS011;28703;44.412;11.918;2023-07-22T10:00:25;254.52;;;237.55;;
39314;SDS011;28703;44.412;11.918;2023-07-22T10:02:56;335.30;;;311.70;;
39314;SDS011;28703;44.412;11.918;2023-07-22T10:05:24;115.70;;;108.07;;
39314;SDS011;28703;44.412;11.918;2023-07-22T10:07:51;97.45;;;90.88;;
39314;SDS011;28703;44.412;11.918;2023-07-22T10:10:23;259.52;;;242.10;;
39314;SDS011;28703;44.412;11.918;2023-07-22T10:12:56;157.63;;;146.45;;
39314;SDS011;28703;44.412;11.918;2023-07-22T10:15:24;169.45;;;157.60;;
39314;SDS011;28703;44.412;11.918;2023-07-22T10:17:51;225.90;;;210.35;;
39314;SDS011;28703;44.412;11.918;2023-07-22T10:20:19;118.38;;;110.43;;
39314;SDS011;28703;44.412;11.918;2023-07-22T10:22:47;85.88;;;80.00;;
39314;SDS011;28703;44.412;11.918;2023-07-22T10:25:16;80.40;;;74.82;;
39314;SDS011;28703;44.412;11.918;2023-07-22T10:27:43;127.38;;;118.53;;
39314;SDS011;28703;44.412;11.918;2023-07-22T10:30:10;110.55;;;102.97;;
39314;SDS011;28703;44.412;11.918;2023-07-22T10:35:08;137.98;;;128.60;;
39314;SDS011;28703;44.412;11.918;2023-07-22T10:37:35;95.22;;;88.30;;
39314;SDS011;28703;44.412;11.918;2023-07-22T10:40:18;62.17;;;57.63;;
39314;SDS011;28703;44.412;11.918;2023-07-22T10:42:57;133.75;;;124.55;;
39314;SDS011;28703;44.412;11.918;2023-07-22T10:45:29;133.20;;;123.95;;
39314;SDS011;28703;44.412;11.918;2023-07-22T10:48:05;153.48;;;142.95;;
39314;SDS011;28703;44.412;11.918;2023-07-22T10:50:38;97.38;;;90.47;;
39314;SDS011;28703;44.412;11.918;2023-07-22T10:56:13;137.27;;;128.25;;
39314;SDS011;28703;44.412;11.918;2023-07-22T11:09:05;160.90;;;150.10;;
39314;SDS011;28703;44.412;11.918;2023-07-22T11:11:39;92.28;;;86.00;;
39314;SDS011;28703;44.412;11.918;2023-07-22T11:14:16;91.70;;;85.63;;
39314;SDS011;28703;44.412;11.918;2023-07-22T11:16:45;71.55;;;66.90;;
39314;SDS011;28703;44.412;11.918;2023-07-22T11:19:12;69.65;;;64.55;;
39314;SDS011;28703;44.412;11.918;2023-07-22T11:21:40;90.95;;;84.45;;
39314;SDS011;28703;44.412;11.918;2023-07-22T11:24:10;64.60;;;60.15;;
39314;SDS011;28703;44.412;11.918;2023-07-22T11:26:36;61.70;;;57.35;;
39314;SDS011;28703;44.412;11.918;2023-07-22T11:29:03;79.85;;;73.93;;
39314;SDS011;28703;44.412;11.918;2023-07-22T11:31:33;83.65;;;77.65;;
39314;SDS011;28703;44.412;11.918;2023-07-22T11:34:04;44.60;;;41.58;;
39314;SDS011;28703;44.412;11.918;2023-07-22T11:36:30;51.90;;;48.20;;
39314;SDS011;28703;44.412;11.918;2023-07-22T11:39:10;70.95;;;65.75;;
39314;SDS011;28703;44.412;11.918;2023-07-22T11:41:38;35.88;;;32.92;;
39314;SDS011;28703;44.412;11.918;2023-07-22T11:44:07;34.67;;;31.70;;
39314;SDS011;28703;44.412;11.918;2023-07-22T11:46:35;55.63;;;51.53;;
39314;SDS011;28703;44.412;11.918;2023-07-22T11:49:01;36.25;;;33.05;;
39314;SDS011;28703;44.412;11.918;2023-07-22T11:51:28;36.47;;;33.92;;
39314;SDS011;28703;44.412;11.918;2023-07-22T11:53:54;56.13;;;52.05;;
39314;SDS011;28703;44.412;11.918;2023-07-22T11:56:23;62.78;;;58.47;;
39314;SDS011;28703;44.412;11.918;2023-07-22T11:58:56;51.95;;;48.08;;
39314;SDS011;28703;44.412;11.918;2023-07-22T12:01:23;26.33;;;24.45;;
39314;SDS011;28703;44.412;11.918;2023-07-22T12:03:49;39.55;;;36.35;;
39314;SDS011;28703;44.412;11.918;2023-07-22T12:06:21;38.35;;;35.80;;
39314;SDS011;28703;44.412;11.918;2023-07-22T12:08:51;226.70;;;211.60;;
39314;SDS011;28703;44.412;11.918;2023-07-22T12:11:18;31.58;;;29.38;;
39314;SDS011;28703;44.412;11.918;2023-07-22T12:14:04;38.80;;;35.65;;
39314;SDS011;28703;44.412;11.918;2023-07-22T12:16:30;33.85;;;31.40;;
39314;SDS011;28703;44.412;11.918;2023-07-22T12:18:56;27.95;;;26.00;;
39314;SDS011;28703;44.412;11.918;2023-07-22T12:21:22;29.33;;;27.20;;
39314;SDS011;28703;44.412;11.918;2023-07-22T12:23:48;28.85;;;26.60;;
39314;SDS011;28703;44.412;11.918;2023-07-22T12:26:14;29.33;;;26.90;;
39314;SDS011;28703;44.412;11.918;2023-07-22T12:28:40;33.85;;;31.45;;
39314;SDS011;28703;44.412;11.918;2023-07-22T12:31:06;39.67;;;36.47;;
39314;SDS011;28703;44.412;11.918;2023-07-22T12:33:32;29.83;;;27.73;;
39314;SDS011;28703;44.412;11.918;2023-07-22T12:35:58;186.70;;;174.68;;
39314;SDS011;28703;44.412;11.918;2023-07-22T12:38:24;35.72;;;33.10;;
39314;SDS011;28703;44.412;11.918;2023-07-22T12:40:50;31.90;;;29.48;;
39314;SDS011;28703;44.412;11.918;2023-07-22T12:43:15;29.83;;;27.63;;
39314;SDS011;28703;44.412;11.918;2023-07-22T12:45:41;41.60;;;38.95;;
39314;SDS011;28703;44.412;11.918;2023-07-22T12:48:08;36.50;;;34.28;;
39314;SDS011;28703;44.412;11.918;2023-07-22T12:50:34;39.47;;;36.47;;
39314;SDS011;28703;44.412;11.918;2023-07-22T12:53:00;34.10;;;31.92;;
39314;SDS011;28703;44.412;11.918;2023-07-22T12:55:27;27.83;;;25.90;;
39314;SDS011;28703;44.412;11.918;2023-07-22T12:57:53;31.73;;;29.10;;
39314;SDS011;28703;44.412;11.918;2023-07-22T13:00:19;32.45;;;30.38;;
39314;SDS011;28703;44.412;11.918;2023-07-22T13:02:46;26.50;;;24.30;;
39314;SDS011;28703;44.412;11.918;2023-07-22T13:05:12;26.05;;;24.10;;
39314;SDS011;28703;44.412;11.918;2023-07-22T13:07:39;21.13;;;19.38;;
39314;SDS011;28703;44.412;11.918;2023-07-22T13:10:05;17.77;;;16.58;;
39314;SDS011;28703;44.412;11.918;2023-07-22T13:12:37;19.65;;;17.85;;
39314;SDS011;28703;44.412;11.918;2023-07-22T13:15:06;17.20;;;15.60;;
39314;SDS011;28703;44.412;11.918;2023-07-22T13:17:33;17.17;;;15.68;;
39314;SDS011;28703;44.412;11.918;2023-07-22T13:19:58;475.77;;;439.77;;
39314;SDS011;28703;44.412;11.918;2023-07-22T13:22:24;462.15;;;426.75;;
39314;SDS011;28703;44.412;11.918;2023-07-22T13:24:50;22.42;;;19.00;;
39314;SDS011;28703;44.412;11.918;2023-07-22T13:27:16;309.70;;;283.92;;
39314;SDS011;28703;44.412;11.918;2023-07-22T13:29:42;410.67;;;370.13;;
39314;SDS011;28703;44.412;11.918;2023-07-22T13:32:08;463.52;;;424.42;;
39314;SDS011;28703;44.412;11.918;2023-07-22T13:34:34;293.35;;;267.98;;
39314;SDS011;28703;44.412;11.918;2023-07-22T13:36:59;93.63;;;84.65;;
39314;SDS011;28703;44.412;11.918;2023-07-22T13:39:27;246.10;;;225.52;;
39314;SDS011;28703;44.412;11.918;2023-07-22T13:41:53;29.85;;;6.68;;
39314;SDS011;28703;44.412;11.918;2023-07-22T13:44:19;32.30;;;29.50;;
39314;SDS011;28703;44.412;11.918;2023-07-22T13:46:45;95.60;;;89.55;;
39314;SDS011;28703;44.412;11.918;2023-07-22T13:49:11;181.15;;;168.25;;
39314;SDS011;28703;44.412;11.918;2023-07-22T13:51:37;333.05;;;310.67;;
39314;SDS011;28703;44.412;11.918;2023-07-22T13:54:03;143.68;;;134.18;;
39314;SDS011;28703;44.412;11.918;2023-07-22T13:56:28;156.00;;;144.45;;
39314;SDS011;28703;44.412;11.918;2023-07-22T13:58:54;115.68;;;108.05;;
39314;SDS011;28703;44.412;11.918;2023-07-22T14:01:20;106.20;;;99.38;;
39314;SDS011;28703;44.412;11.918;2023-07-22T14:03:46;108.57;;;101.63;;
39314;SDS011;28703;44.412;11.918;2023-07-22T14:06:12;102.93;;;96.00;;
39314;SDS011;28703;44.412;11.918;2023-07-22T14:08:37;94.63;;;88.50;;
39314;SDS011;28703;44.412;11.918;2023-07-22T14:11:04;106.57;;;98.85;;
39314;SDS011;28703;44.412;11.918;2023-07-22T14:13:30;86.50;;;79.43;;
39314;SDS011;28703;44.412;11.918;2023-07-22T14:15:56;76.55;;;70.25;;